createdAt,value
2018-06-12T00:00:37.350Z,100883.72
2018-06-12T00:03:41.709Z,100869.79
2018-06-12T00:06:46.085Z,100865.44
2018-06-12T00:09:50.453Z,100868.39
2018-06-12T00:12:54.827Z,100866.78
2018-06-12T00:15:59.208Z,100869.04
2018-06-12T00:19:03.580Z,100870.66
2018-06-12T00:22:07.955Z,100871.50
2018-06-12T00:25:12.374Z,100879.70
2018-06-12T00:28:16.712Z,100881.52
2018-06-12T00:31:21.097Z,100872.09
2018-06-12T00:34:25.487Z,100863.13
2018-06-12T00:37:29.861Z,100863.38
2018-06-12T00:40:34.201Z,100861.95
2018-06-12T00:43:39.478Z,100845.28
2018-06-12T00:46:43.869Z,100852.20
2018-06-12T00:49:48.394Z,100852.20
2018-06-12T00:52:52.788Z,100849.52
2018-06-12T00:55:57.166Z,100846.20
2018-06-12T00:59:01.543Z,100844.08
2018-06-12T01:02:06.316Z,100849.27
2018-06-12T01:05:10.705Z,100862.39
2018-06-12T01:08:15.069Z,100861.84
2018-06-12T01:11:19.440Z,100852.54
2018-06-12T01:14:23.811Z,100852.79
2018-06-12T01:17:28.221Z,100851.42
2018-06-12T01:20:32.574Z,100846.98
2018-06-12T01:23:36.952Z,100849.52
2018-06-12T01:26:41.328Z,100844.33
2018-06-12T01:29:45.696Z,100842.96
2018-06-12T01:32:50.061Z,100837.43
2018-06-12T01:35:54.448Z,100843.99
2018-06-12T01:38:58.833Z,100843.47
2018-06-12T01:42:03.192Z,100843.16
2018-06-12T01:45:07.564Z,100847.51
2018-06-12T01:48:11.921Z,100843.66
2018-06-12T01:51:16.308Z,100852.43
2018-06-12T01:54:20.712Z,100848.58
2018-06-12T01:57:25.076Z,100853.46
2018-06-12T02:00:29.493Z,100855.94
2018-06-12T02:03:33.841Z,100847.77
2018-06-12T02:06:38.209Z,100854.41
2018-06-12T02:09:42.637Z,100849.97
2018-06-12T02:12:46.997Z,100854.33
2018-06-12T02:15:51.394Z,100853.73
2018-06-12T02:18:55.740Z,100852.23
2018-06-12T02:22:00.125Z,100859.88
2018-06-12T02:25:04.534Z,100859.88
2018-06-12T02:28:08.883Z,100863.70
2018-06-12T02:31:13.257Z,100854.72
2018-06-12T02:34:17.618Z,100854.66
2018-06-12T02:37:22.012Z,100864.45
2018-06-12T02:40:26.397Z,100861.97
2018-06-12T02:43:30.766Z,100863.49
2018-06-12T02:46:35.145Z,100860.66
2018-06-12T02:49:39.265Z,100864.20
2018-06-12T02:52:43.647Z,100862.66
2018-06-12T02:55:48.017Z,100864.58
2018-06-12T02:58:52.428Z,100862.91
2018-06-12T03:02:00.631Z,100864.52
2018-06-12T03:05:05.098Z,100860.14
2018-06-12T03:08:09.475Z,100851.69
2018-06-12T03:11:13.914Z,100852.21
2018-06-12T03:14:18.278Z,100864.83
2018-06-12T03:17:22.653Z,100866.14
2018-06-12T03:20:46.182Z,100866.45
2018-06-12T03:23:50.540Z,100867.47
2018-06-12T03:26:54.945Z,100864.52
2018-06-12T03:29:59.321Z,100867.94
2018-06-12T03:33:03.721Z,100870.58
2018-06-12T03:36:08.085Z,100864.36
2018-06-12T03:39:12.447Z,100862.96
2018-06-12T03:42:16.852Z,100867.81
2018-06-12T03:45:21.241Z,100864.52
2018-06-12T03:48:25.656Z,100860.41
2018-06-12T03:51:30.030Z,100853.58
2018-06-12T03:54:34.406Z,100860.41
2018-06-12T03:57:38.780Z,100861.78
2018-06-12T04:00:43.177Z,100858.74
2018-06-12T04:03:47.541Z,100858.18
2018-06-12T04:06:51.913Z,100865.27
2018-06-12T04:09:56.253Z,100857.93
2018-06-12T04:13:00.649Z,100858.74
2018-06-12T04:16:05.004Z,100853.58
2018-06-12T04:19:09.369Z,100853.02
2018-06-12T04:22:13.737Z,100852.96
2018-06-12T04:25:18.117Z,100851.28
2018-06-12T04:28:22.464Z,100862.91
2018-06-12T04:31:26.832Z,100864.08
2018-06-12T04:34:31.190Z,100858.02
2018-06-12T04:37:35.581Z,100852.77
2018-06-12T04:40:39.944Z,100859.05
2018-06-12T04:43:44.316Z,100859.30
2018-06-12T04:46:48.691Z,100861.47
2018-06-12T04:49:53.066Z,100858.42
2018-06-12T04:52:57.429Z,100853.89
2018-06-12T04:56:01.816Z,100851.46
2018-06-12T04:59:06.165Z,100852.05
2018-06-12T05:02:10.518Z,100848.04
2018-06-12T05:05:14.897Z,100840.67
2018-06-12T05:08:19.272Z,100854.28
2018-06-12T05:11:23.376Z,100847.70
2018-06-12T05:14:27.786Z,100852.89
2018-06-12T05:17:32.160Z,100855.38
2018-06-12T05:20:36.517Z,100857.59
2018-06-12T05:23:40.901Z,100852.67
2018-06-12T05:26:45.820Z,100855.77
2018-06-12T05:29:50.204Z,100857.23
2018-06-12T05:32:54.565Z,100858.31
2018-06-12T05:35:58.928Z,100863.79
2018-06-12T05:39:03.373Z,100856.73
2018-06-12T05:42:07.737Z,100861.16
2018-06-12T05:45:12.093Z,100860.77
2018-06-12T05:48:16.457Z,100864.85
2018-06-12T05:51:20.840Z,100858.27
2018-06-12T05:54:25.192Z,100855.27
2018-06-12T05:57:29.577Z,100858.88
2018-06-12T06:00:33.942Z,100869.09
2018-06-12T06:03:38.317Z,100869.77
2018-06-12T06:06:42.678Z,100873.34
2018-06-12T06:09:47.057Z,100872.02
2018-06-12T06:12:51.450Z,100862.49
2018-06-12T06:15:55.828Z,100872.08
2018-06-12T06:19:00.173Z,100874.56
2018-06-12T06:22:04.552Z,100882.46
2018-06-12T06:25:08.937Z,100883.16
2018-06-12T06:28:13.290Z,100882.29
2018-06-12T06:31:17.689Z,100877.91
2018-06-12T06:34:22.081Z,100875.25
2018-06-12T06:37:26.444Z,100874.44
2018-06-12T06:40:30.829Z,100886.94
2018-06-12T06:43:35.268Z,100887.31
2018-06-12T06:46:39.621Z,100888.94
2018-06-12T06:49:44.006Z,100892.54
2018-06-12T06:52:48.430Z,100886.84
2018-06-12T06:55:52.844Z,100895.25
2018-06-12T06:58:57.231Z,100890.97
2018-06-12T07:02:01.613Z,100892.87
2018-06-12T07:05:06.009Z,100892.94
2018-06-12T07:08:10.383Z,100895.70
2018-06-12T07:11:14.833Z,100897.07
2018-06-12T07:14:19.204Z,100894.66
2018-06-12T07:17:23.568Z,100892.52
2018-06-12T07:21:31.314Z,100906.53
2018-06-12T07:24:35.682Z,100901.69
2018-06-12T07:27:40.028Z,100897.13
2018-06-12T07:30:44.421Z,100897.09
2018-06-12T07:33:48.788Z,100905.94
2018-06-12T07:36:53.156Z,100895.64
2018-06-12T07:39:57.521Z,100889.96
2018-06-12T07:43:01.936Z,100890.04
2018-06-12T07:46:06.417Z,100887.83
2018-06-12T07:49:10.785Z,100897.09
2018-06-12T07:52:15.158Z,100891.67
2018-06-12T07:55:19.549Z,100894.10
2018-06-12T07:58:23.925Z,100895.52
2018-06-12T08:01:28.292Z,100900.84
2018-06-12T08:04:32.669Z,100899.57
2018-06-12T08:07:37.050Z,100896.98
2018-06-12T08:10:41.409Z,100901.84
2018-06-12T08:13:45.821Z,100896.97
2018-06-12T08:16:50.192Z,100893.30
2018-06-12T08:19:54.308Z,100896.22
2018-06-12T08:22:58.682Z,100889.55
2018-06-12T08:26:03.058Z,100883.62
2018-06-12T08:29:07.535Z,100888.95
2018-06-12T08:32:11.934Z,100890.57
2018-06-12T08:35:16.289Z,100895.17
2018-06-12T08:38:20.671Z,100897.86
2018-06-12T08:41:25.042Z,100901.05
2018-06-12T08:44:29.443Z,100900.78
2018-06-12T08:47:33.811Z,100899.98
2018-06-12T08:50:38.208Z,100896.75
2018-06-12T08:53:42.605Z,100893.99
2018-06-12T08:56:46.957Z,100891.51
2018-06-12T08:59:51.429Z,100886.02
2018-06-12T09:02:55.820Z,100886.88
2018-06-12T09:06:00.239Z,100896.80
2018-06-12T09:09:06.152Z,100897.26
2018-06-12T09:12:10.546Z,100895.88
2018-06-12T09:15:14.965Z,100896.16
2018-06-12T09:18:19.373Z,100896.16
2018-06-12T09:21:23.786Z,100889.61
2018-06-12T09:24:28.176Z,100892.73
2018-06-12T09:27:37.750Z,100894.44
2018-06-12T09:30:42.142Z,100891.70
2018-06-12T09:33:46.513Z,100893.07
2018-06-12T09:36:51.013Z,100896.08
2018-06-12T09:39:55.472Z,100904.30
2018-06-12T09:42:59.862Z,100905.09
2018-06-12T09:46:04.245Z,100911.36
2018-06-12T09:49:08.683Z,100908.25
2018-06-12T09:52:13.025Z,100913.72
2018-06-12T09:55:17.445Z,100916.20
2018-06-12T09:58:21.827Z,100917.63
2018-06-12T10:01:26.265Z,100925.02
2018-06-12T10:04:30.665Z,100916.01
2018-06-12T10:07:35.064Z,100917.97
2018-06-12T10:10:39.445Z,100915.02
2018-06-12T10:13:43.861Z,100917.66
2018-06-12T10:16:48.288Z,100913.95
2018-06-12T10:19:52.725Z,100922.46
2018-06-12T10:22:57.146Z,100916.08
2018-06-12T10:26:01.540Z,100922.63
2018-06-12T10:29:06.228Z,100922.56
2018-06-12T10:32:10.617Z,100925.32
2018-06-12T10:35:15.021Z,100922.84
2018-06-12T10:38:19.412Z,100920.94
2018-06-12T10:41:23.774Z,100917.13
2018-06-12T10:44:28.177Z,100910.33
2018-06-12T10:47:32.533Z,100918.13
2018-06-12T10:50:36.916Z,100916.00
2018-06-12T10:53:41.348Z,100918.92
2018-06-12T10:56:45.786Z,100921.78
2018-06-12T10:59:49.897Z,100934.22
2018-06-12T11:02:54.261Z,100920.66
2018-06-12T11:05:58.660Z,100928.89
2018-06-12T11:09:03.121Z,100927.25
2018-06-12T11:12:07.517Z,100930.03
2018-06-12T11:15:11.909Z,100932.79
2018-06-12T11:18:16.349Z,100924.63
2018-06-12T11:21:20.733Z,100938.36
2018-06-12T11:24:25.138Z,100935.61
2018-06-12T11:27:29.614Z,100942.14
2018-06-12T11:30:34.014Z,100945.93
2018-06-12T11:33:38.445Z,100932.79
2018-06-12T11:36:42.856Z,100936.38
2018-06-12T11:39:47.235Z,100929.05
2018-06-12T11:42:51.651Z,100930.59
2018-06-12T11:45:56.057Z,100926.38
2018-06-12T11:49:00.464Z,100921.58
2018-06-12T11:52:04.908Z,100922.77
2018-06-12T11:55:09.320Z,100930.20
2018-06-12T11:58:13.729Z,100930.89
2018-06-12T12:01:18.122Z,100929.16
2018-06-12T12:04:22.522Z,100936.52
2018-06-12T12:07:26.924Z,100949.88
2018-06-12T12:10:31.332Z,100950.19
2018-06-12T12:13:35.731Z,100948.49
2018-06-12T12:16:40.129Z,100946.80
2018-06-12T12:19:44.528Z,100949.29
2018-06-12T12:22:48.945Z,100945.70
2018-06-12T12:25:53.341Z,100950.29
2018-06-12T12:28:57.753Z,100958.47
2018-06-12T12:32:02.254Z,100963.95
2018-06-12T12:35:06.686Z,100953.69
2018-06-12T12:38:11.081Z,100962.39
2018-06-12T12:41:15.490Z,100960.42
2018-06-12T12:44:19.884Z,100960.22
2018-06-12T12:47:24.272Z,100962.70
2018-06-12T12:50:28.641Z,100953.70
2018-06-12T12:53:33.029Z,100961.98
2018-06-12T12:56:37.422Z,100948.59
2018-06-12T12:59:41.809Z,100951.66
2018-06-12T13:02:46.205Z,100951.91
2018-06-12T13:05:50.598Z,100953.36
2018-06-12T13:08:55.037Z,100953.45
2018-06-12T13:11:59.438Z,100957.62
2018-06-12T13:15:03.837Z,100953.78
2018-06-12T13:18:08.242Z,100951.87
2018-06-12T13:21:12.638Z,100948.23
2018-06-12T13:24:17.037Z,100946.87
2018-06-12T13:27:21.435Z,100956.36
2018-06-12T13:30:25.862Z,100949.17
2018-06-12T13:33:30.333Z,100947.53
2018-06-12T13:36:34.688Z,100946.70
2018-06-12T13:39:39.068Z,100946.97
2018-06-12T13:42:43.488Z,100947.29
2018-06-12T13:45:47.889Z,100948.17
2018-06-12T13:48:52.284Z,100949.03
2018-06-12T13:51:56.685Z,100938.67
2018-06-12T13:55:01.106Z,100944.12
2018-06-12T13:58:05.513Z,100946.55
2018-06-12T14:01:09.965Z,100941.59
2018-06-12T14:04:14.350Z,100944.55
2018-06-12T14:07:18.748Z,100946.42
2018-06-12T14:10:23.133Z,100950.44
2018-06-12T14:13:27.561Z,100957.23
2018-06-12T14:16:31.912Z,100957.43
2018-06-12T14:19:36.309Z,100950.44
2018-06-12T14:22:40.665Z,100958.73
2018-06-12T14:25:45.058Z,100949.20
2018-06-12T14:28:49.425Z,100952.05
2018-06-12T14:31:53.817Z,100951.53
2018-06-12T14:34:58.176Z,100954.28
2018-06-12T14:38:02.537Z,100967.67
2018-06-12T14:41:06.987Z,100960.69
2018-06-12T14:44:11.353Z,100966.52
2018-06-12T14:47:15.747Z,100957.64
2018-06-12T14:50:20.099Z,100952.99
2018-06-12T14:53:24.548Z,100958.75
2018-06-12T14:56:28.918Z,100962.08
2018-06-12T14:59:33.306Z,100957.58
2018-06-12T15:02:37.711Z,100963.75
2018-06-12T15:05:42.101Z,100967.84
2018-06-12T15:08:46.480Z,100963.64
2018-06-12T15:11:50.837Z,100960.06
2018-06-12T15:14:55.225Z,100954.25
2018-06-12T15:17:59.581Z,100952.42
2018-06-12T15:21:03.957Z,100954.92
2018-06-12T15:24:08.307Z,100950.02
2018-06-12T15:27:12.729Z,100952.83
2018-06-12T15:30:17.089Z,100947.64
2018-06-12T15:33:21.504Z,100947.44
2018-06-12T15:36:25.860Z,100951.02
2018-06-12T15:39:30.241Z,100949.39
2018-06-12T15:42:34.609Z,100951.22
2018-06-12T15:45:39.010Z,100956.53
2018-06-12T15:48:43.351Z,100949.16
2018-06-12T15:51:47.765Z,100946.20
2018-06-12T15:54:52.154Z,100938.30
2018-06-12T15:57:56.548Z,100933.44
2018-06-12T16:01:00.938Z,100936.35
2018-06-12T16:04:05.344Z,100930.12
2018-06-12T16:07:09.701Z,100926.38
2018-06-12T16:10:14.108Z,100931.19
2018-06-12T16:13:18.499Z,100929.98
2018-06-12T16:16:22.888Z,100930.45
2018-06-12T16:19:27.294Z,100924.59
2018-06-12T16:22:31.725Z,100922.31
2018-06-12T16:25:36.090Z,100922.97
2018-06-12T16:28:40.461Z,100933.44
2018-06-12T16:31:44.838Z,100932.72
2018-06-12T16:34:49.237Z,100929.47
2018-06-12T16:37:53.663Z,100930.28
2018-06-12T16:40:58.043Z,100933.00
2018-06-12T16:44:02.440Z,100932.34
2018-06-12T16:47:06.822Z,100930.38
2018-06-12T16:50:11.230Z,100928.70
2018-06-12T16:53:15.597Z,100924.02
2018-06-12T16:56:20.055Z,100925.14
2018-06-12T16:59:24.402Z,100933.09
2018-06-12T17:02:28.845Z,100924.11
2018-06-12T17:05:33.233Z,100930.19
2018-06-12T17:08:38.328Z,100926.66
2018-06-12T17:11:42.825Z,100918.90
2018-06-12T17:14:47.224Z,100916.39
2018-06-12T17:17:51.585Z,100920.97
2018-06-12T17:20:55.937Z,100922.29
2018-06-12T17:24:00.324Z,100917.52
2018-06-12T17:27:04.732Z,100919.98
2018-06-12T17:30:09.137Z,100915.55
2018-06-12T17:33:13.546Z,100910.40
2018-06-12T17:36:17.934Z,100922.06
2018-06-12T17:39:22.373Z,100915.67
2018-06-12T17:42:26.767Z,100924.30
2018-06-12T17:45:31.178Z,100923.97
2018-06-12T17:48:35.699Z,100926.16
2018-06-12T17:51:40.876Z,100919.08
2018-06-12T17:54:45.353Z,100925.04
2018-06-12T17:57:49.736Z,100916.58
2018-06-12T18:00:54.187Z,100916.02
2018-06-12T18:03:58.585Z,100910.26
2018-06-12T18:07:02.965Z,100911.66
2018-06-12T18:10:07.410Z,100911.37
2018-06-12T18:13:11.840Z,100918.89
2018-06-12T18:16:16.206Z,100920.68
2018-06-12T18:19:20.632Z,100922.36
2018-06-12T18:22:25.049Z,100917.14
2018-06-12T18:25:29.490Z,100917.50
2018-06-12T18:28:33.869Z,100916.58
2018-06-12T18:31:38.277Z,100916.99
2018-06-12T18:34:42.622Z,100917.80
2018-06-12T18:37:47.000Z,100923.47
2018-06-12T18:40:51.353Z,100917.38
2018-06-12T18:43:55.769Z,100926.59
2018-06-12T18:47:00.105Z,100931.69
2018-06-12T18:50:04.513Z,100929.64
2018-06-12T18:53:08.868Z,100931.22
2018-06-12T18:56:13.265Z,100930.63
2018-06-12T18:59:17.637Z,100930.94
2018-06-12T19:02:22.013Z,100929.85
2018-06-12T19:05:26.370Z,100932.84
2018-06-12T19:08:30.785Z,100924.63
2018-06-12T19:11:35.179Z,100931.72
2018-06-12T19:14:39.584Z,100928.98
2018-06-12T19:17:43.957Z,100931.94
2018-06-12T19:20:48.333Z,100934.08
2018-06-12T19:23:52.710Z,100936.81
2018-06-12T19:26:57.081Z,100930.26
2018-06-12T19:30:01.486Z,100935.55
2018-06-12T19:33:05.896Z,100936.75
2018-06-12T19:36:10.274Z,100937.06
2018-06-12T19:39:14.657Z,100940.42
2018-06-12T19:42:19.021Z,100938.12
2018-06-12T19:45:23.450Z,100947.38
2018-06-12T19:48:27.814Z,100950.89
2018-06-12T19:51:32.223Z,100951.97
2018-06-12T19:54:36.629Z,100957.09
2018-06-12T19:57:41.017Z,100960.08
2018-06-12T20:00:45.431Z,100962.50
2018-06-12T20:03:49.795Z,100962.22
2018-06-12T20:06:54.193Z,100961.06
2018-06-12T20:09:58.549Z,100956.64
2018-06-12T20:13:02.979Z,100961.20
2018-06-12T20:16:07.346Z,100960.08
2018-06-12T20:19:11.701Z,100956.02
2018-06-12T20:22:16.085Z,100961.45
2018-06-12T20:25:20.444Z,100966.31
2018-06-12T20:28:24.816Z,100952.27
2018-06-12T20:31:29.214Z,100960.88
2018-06-12T20:34:33.616Z,100959.30
2018-06-12T20:37:37.996Z,100957.83
2018-06-12T20:40:42.396Z,100966.83
2018-06-12T20:43:46.756Z,100951.30
2018-06-12T20:46:51.240Z,100963.25
2018-06-12T20:49:55.553Z,100965.34
2018-06-12T20:52:59.941Z,100965.52
2018-06-12T20:56:04.337Z,100968.00
2018-06-12T20:59:08.692Z,100960.36
2018-06-12T21:02:13.050Z,100969.20
2018-06-12T21:05:17.432Z,100969.20
2018-06-12T21:08:21.808Z,100975.03
2018-06-12T21:11:26.186Z,100966.24
2018-06-12T21:14:30.543Z,100961.27
2018-06-12T21:17:34.939Z,100967.81
2018-06-12T21:20:39.272Z,100965.69
2018-06-12T21:23:43.661Z,100968.66
2018-06-12T21:26:48.121Z,100972.16
2018-06-12T21:29:52.463Z,100966.81
2018-06-12T21:32:56.825Z,100971.99
2018-06-12T21:36:01.178Z,100970.31
2018-06-12T21:39:08.141Z,100975.73
2018-06-12T21:42:12.505Z,100972.16
2018-06-12T21:45:16.864Z,100975.41
2018-06-12T21:48:21.218Z,100976.56
2018-06-12T21:51:25.586Z,100980.95
2018-06-12T21:54:29.949Z,100986.66
2018-06-12T21:57:34.325Z,100979.47
2018-06-12T22:00:38.688Z,100972.92
2018-06-12T22:03:43.110Z,100967.66
2018-06-12T22:06:47.493Z,100973.72
2018-06-12T22:09:51.915Z,100969.02
2018-06-12T22:12:56.301Z,100966.05
2018-06-12T22:16:00.677Z,100961.59
2018-06-12T22:19:05.077Z,100957.25
2018-06-12T22:22:09.446Z,100955.13
2018-06-12T22:25:13.886Z,100955.66
2018-06-12T22:28:18.241Z,100956.97
2018-06-12T22:31:22.621Z,100953.64
2018-06-12T22:34:26.999Z,100959.34
2018-06-12T22:37:31.400Z,100959.22
2018-06-12T22:40:35.780Z,100959.02
2018-06-12T22:43:40.137Z,100963.32
2018-06-12T22:46:44.509Z,100955.20
2018-06-12T22:49:48.918Z,100953.36
2018-06-12T22:52:53.309Z,100960.67
2018-06-12T22:55:57.712Z,100957.86
2018-06-12T22:59:02.088Z,100956.69
2018-06-12T23:02:06.748Z,100958.58
2018-06-12T23:05:11.137Z,100957.81
2018-06-12T23:08:15.532Z,100968.22
2018-06-12T23:11:19.916Z,100965.00
2018-06-12T23:14:24.298Z,100959.55
2018-06-12T23:17:28.698Z,100958.70
2018-06-12T23:20:50.303Z,100958.42
2018-06-12T23:23:54.697Z,100956.69
2018-06-12T23:26:58.804Z,100958.58
2018-06-12T23:30:03.178Z,100956.21
2018-06-12T23:33:07.557Z,100956.41
2018-06-12T23:36:11.896Z,100953.91
2018-06-12T23:39:16.304Z,100953.13
2018-06-12T23:42:20.656Z,100956.17
2018-06-12T23:45:25.034Z,100956.45
2018-06-12T23:59:24.142Z,100948.78
